createdAt,value
2018-04-22T00:00:49.964Z,9.65
2018-04-22T00:01:54.370Z,9.73
2018-04-22T00:03:01.568Z,9.71
2018-04-22T00:04:07.729Z,9.85
2018-04-22T00:05:11.904Z,10.01
2018-04-22T00:06:17.449Z,9.92
2018-04-22T00:07:32.862Z,9.90
2018-04-22T00:08:37.017Z,10.13
2018-04-22T00:09:41.840Z,10.06
2018-04-22T00:10:47.487Z,9.98
2018-04-22T00:12:05.017Z,9.97
2018-04-22T00:13:09.263Z,10.34
2018-04-22T00:14:14.276Z,10.57
2018-04-22T00:15:29.710Z,10.60
2018-04-22T00:16:34.678Z,10.49
2018-04-22T00:17:39.585Z,10.28
2018-04-22T00:18:43.722Z,10.18
2018-04-22T00:19:48.110Z,10.05
2018-04-22T00:20:55.275Z,10.08
2018-04-22T00:21:59.715Z,10.36
2018-04-22T00:23:03.815Z,10.46
2018-04-22T00:24:12.293Z,10.45
2018-04-22T00:25:17.144Z,10.27
2018-04-22T00:26:25.532Z,10.13
2018-04-22T00:27:32.557Z,10.02
2018-04-22T00:28:39.736Z,9.99
2018-04-22T00:29:46.428Z,10.08
2018-04-22T00:30:51.971Z,10.18
2018-04-22T00:32:03.246Z,10.12
2018-04-22T00:33:07.486Z,10.05
2018-04-22T00:34:13.335Z,9.99
2018-04-22T00:35:17.584Z,9.91
2018-04-22T00:36:21.750Z,9.94
2018-04-22T00:37:26.912Z,10.06
2018-04-22T00:38:31.050Z,10.09
2018-04-22T00:39:35.312Z,10.12
2018-04-22T00:40:40.262Z,10.20
2018-04-22T00:42:02.958Z,10.12
2018-04-22T00:43:20.457Z,10.05
2018-04-22T00:44:36.444Z,9.94
2018-04-22T00:45:43.514Z,9.83
2018-04-22T00:46:50.651Z,9.89
2018-04-22T00:47:56.151Z,9.95
2018-04-22T00:49:01.565Z,9.92
2018-04-22T00:50:10.162Z,9.92
2018-04-22T00:51:14.454Z,9.84
2018-04-22T00:52:18.645Z,9.83
2018-04-22T00:53:25.224Z,9.83
2018-04-22T00:54:40.502Z,9.81
2018-04-22T00:55:59.044Z,9.81
2018-04-22T00:57:04.889Z,9.79
2018-04-22T00:58:12.717Z,9.75
2018-04-22T00:59:16.828Z,9.73
2018-04-22T01:00:21.387Z,9.73
2018-04-22T01:01:26.942Z,9.74
2018-04-22T01:02:32.120Z,9.86
2018-04-22T01:03:40.804Z,10.08
2018-04-22T01:04:45.056Z,10.27
2018-04-22T01:05:49.149Z,10.40
2018-04-22T01:06:54.640Z,10.58
2018-04-22T01:08:16.020Z,10.65
2018-04-22T01:09:20.150Z,10.60
2018-04-22T01:10:24.625Z,10.60
2018-04-22T01:11:29.388Z,10.45
2018-04-22T01:12:33.517Z,10.33
2018-04-22T01:13:39.078Z,10.22
2018-04-22T01:14:43.202Z,10.07
2018-04-22T01:15:49.790Z,9.82
2018-04-22T01:16:58.061Z,9.55
2018-04-22T01:18:04.724Z,9.33
2018-04-22T01:19:12.556Z,9.20
2018-04-22T01:20:17.165Z,9.07
2018-04-22T01:21:22.446Z,9.01
2018-04-22T01:22:28.644Z,9.13
2018-04-22T01:23:33.705Z,9.29
2018-04-22T01:24:39.817Z,9.29
2018-04-22T01:25:45.883Z,9.22
2018-04-22T01:26:51.573Z,9.15
2018-04-22T01:27:58.101Z,9.24
2018-04-22T01:29:02.215Z,9.36
2018-04-22T01:30:08.741Z,9.41
2018-04-22T01:31:13.364Z,9.52
2018-04-22T01:32:20.487Z,9.52
2018-04-22T01:33:26.989Z,9.52
2018-04-22T01:34:36.077Z,9.59
2018-04-22T01:35:43.229Z,9.77
2018-04-22T01:36:47.598Z,9.91
2018-04-22T01:37:55.910Z,10.02
2018-04-22T01:39:09.805Z,10.12
2018-04-22T01:40:18.564Z,10.21
2018-04-22T01:41:27.084Z,10.25
2018-04-22T01:42:33.894Z,10.30
2018-04-22T01:43:41.069Z,10.37
2018-04-22T01:44:49.364Z,10.32
2018-04-22T01:45:54.845Z,10.28
2018-04-22T01:46:59.549Z,10.25
2018-04-22T01:48:04.251Z,10.25
2018-04-22T01:49:08.851Z,10.20
2018-04-22T01:50:14.211Z,10.13
2018-04-22T01:51:18.337Z,10.11
2018-04-22T01:52:22.555Z,10.04
2018-04-22T01:53:28.374Z,10.02
2018-04-22T01:54:32.559Z,9.91
2018-04-22T01:55:40.046Z,9.91
2018-04-22T01:56:47.289Z,9.90
2018-04-22T01:57:56.593Z,9.88
2018-04-22T01:59:05.627Z,9.86
2018-04-22T02:00:15.670Z,9.68
2018-04-22T02:01:24.460Z,9.49
2018-04-22T02:02:29.419Z,9.33
2018-04-22T02:03:38.219Z,9.25
2018-04-22T02:04:50.809Z,9.19
2018-04-22T02:05:55.880Z,9.21
2018-04-22T02:06:59.991Z,9.30
2018-04-22T02:08:05.130Z,9.38
2018-04-22T02:09:12.008Z,9.52
2018-04-22T02:10:16.820Z,9.65
2018-04-22T02:11:30.579Z,9.74
2018-04-22T02:12:40.291Z,9.76
2018-04-22T02:13:50.745Z,9.79
2018-04-22T02:14:56.551Z,9.76
2018-04-22T02:16:02.288Z,9.65
2018-04-22T02:17:08.507Z,9.51
2018-04-22T02:18:12.663Z,9.46
2018-04-22T02:19:17.935Z,9.47
2018-04-22T02:20:25.285Z,9.52
2018-04-22T02:22:48.255Z,9.61
2018-04-22T02:23:56.711Z,9.59
2018-04-22T02:25:00.910Z,9.48
2018-04-22T02:26:08.834Z,9.44
2018-04-22T02:27:15.588Z,9.31
2018-04-22T02:28:21.845Z,9.23
2018-04-22T02:29:26.561Z,9.16
2018-04-22T02:30:31.818Z,9.18
2018-04-22T02:31:38.434Z,9.10
2018-04-22T02:32:44.498Z,9.03
2018-04-22T02:33:49.937Z,9.00
2018-04-22T02:34:55.117Z,8.97
2018-04-22T02:37:03.352Z,8.90
2018-04-22T02:38:08.701Z,8.89
2018-04-22T02:39:15.469Z,8.88
2018-04-22T02:40:21.737Z,8.84
2018-04-22T02:41:25.900Z,8.88
2018-04-22T02:42:30.063Z,8.87
2018-04-22T02:43:41.135Z,8.86
2018-04-22T02:44:46.128Z,8.92
2018-04-22T02:45:50.928Z,9.07
2018-04-22T02:46:57.040Z,9.11
2018-04-22T02:48:07.720Z,9.06
2018-04-22T02:49:16.885Z,8.97
2018-04-22T02:50:21.005Z,8.92
2018-04-22T02:51:25.946Z,8.96
2018-04-22T02:52:32.883Z,9.10
2018-04-22T02:53:38.401Z,9.04
2018-04-22T02:54:43.054Z,9.01
2018-04-22T02:55:49.448Z,8.99
2018-04-22T02:56:54.457Z,9.02
2018-04-22T02:57:59.446Z,8.95
2018-04-22T02:59:04.479Z,8.87
2018-04-22T03:00:11.069Z,8.83
2018-04-22T03:01:19.319Z,8.80
2018-04-22T03:02:27.267Z,8.80
2018-04-22T03:03:35.739Z,8.85
2018-04-22T03:04:42.761Z,8.84
2018-04-22T03:05:48.369Z,8.86
2018-04-22T03:06:53.077Z,8.92
2018-04-22T03:07:58.173Z,9.07
2018-04-22T03:09:04.603Z,9.18
2018-04-22T03:10:10.792Z,9.11
2018-04-22T03:11:18.458Z,9.02
2018-04-22T03:12:23.639Z,9.02
2018-04-22T03:13:35.840Z,9.12
2018-04-22T03:14:40.826Z,9.18
2018-04-22T03:15:45.561Z,9.17
2018-04-22T03:16:50.878Z,9.11
2018-04-22T03:17:55.130Z,9.08
2018-04-22T03:18:59.522Z,9.12
2018-04-22T03:20:04.977Z,9.12
2018-04-22T03:21:11.016Z,8.98
2018-04-22T03:22:16.628Z,8.91
2018-04-22T03:23:21.794Z,8.86
2018-04-22T03:24:26.756Z,8.81
2018-04-22T03:25:33.859Z,8.73
2018-04-22T03:26:39.738Z,8.69
2018-04-22T03:27:44.846Z,8.67
2018-04-22T03:28:51.014Z,8.67
2018-04-22T03:29:58.002Z,8.62
2018-04-22T03:31:05.063Z,8.60
2018-04-22T03:32:10.485Z,8.58
2018-04-22T03:33:15.936Z,8.58
2018-04-22T03:34:22.185Z,8.59
2018-04-22T03:35:27.246Z,8.57
2018-04-22T03:36:33.488Z,8.55
2018-04-22T03:37:39.392Z,8.51
2018-04-22T03:38:44.716Z,8.49
2018-04-22T03:39:49.068Z,8.47
2018-04-22T03:40:53.706Z,8.44
2018-04-22T03:41:58.735Z,8.44
2018-04-22T03:43:02.873Z,8.44
2018-04-22T03:44:07.893Z,8.47
2018-04-22T03:45:15.756Z,8.49
2018-04-22T03:46:20.680Z,8.54
2018-04-22T03:47:26.321Z,8.54
2018-04-22T03:48:30.979Z,8.60
2018-04-22T03:49:38.144Z,8.73
2018-04-22T03:50:52.187Z,8.78
2018-04-22T03:51:57.826Z,8.75
2018-04-22T03:53:02.275Z,8.74
2018-04-22T03:54:08.378Z,8.74
2018-04-22T03:55:13.483Z,8.81
2018-04-22T03:56:22.585Z,8.91
2018-04-22T03:57:28.639Z,8.90
2018-04-22T03:58:33.340Z,8.92
2018-04-22T03:59:38.369Z,9.01
2018-04-22T04:00:44.576Z,9.03
2018-04-22T04:01:53.089Z,8.99
2018-04-22T04:02:59.853Z,9.04
2018-04-22T04:04:07.593Z,9.06
2018-04-22T04:05:18.221Z,9.03
2018-04-22T04:06:22.524Z,9.02
2018-04-22T04:07:27.293Z,9.04
2018-04-22T04:08:31.438Z,9.23
2018-04-22T04:09:36.048Z,9.25
2018-04-22T04:10:41.302Z,9.15
2018-04-22T04:11:47.442Z,9.12
2018-04-22T04:12:53.260Z,9.15
2018-04-22T04:13:59.118Z,9.24
2018-04-22T04:15:06.121Z,9.28
2018-04-22T04:16:11.640Z,9.31
2018-04-22T04:17:15.914Z,9.26
2018-04-22T04:18:28.726Z,9.20
2018-04-22T04:21:47.152Z,9.25
2018-04-22T04:22:51.453Z,9.31
2018-04-22T04:24:05.476Z,9.51
2018-04-22T04:27:32.613Z,9.55
2018-04-22T04:28:37.940Z,9.73
2018-04-22T04:29:42.948Z,9.68
2018-04-22T04:30:49.337Z,9.76
2018-04-22T04:31:55.199Z,9.81
2018-04-22T04:33:01.291Z,9.83
2018-04-22T04:34:06.048Z,9.79
2018-04-22T04:35:13.500Z,9.74
2018-04-22T04:36:20.360Z,9.69
2018-04-22T04:37:26.308Z,9.76
2018-04-22T04:38:31.015Z,9.76
2018-04-22T04:39:35.635Z,9.73
2018-04-22T04:40:39.774Z,9.75
2018-04-22T04:41:48.731Z,9.73
2018-04-22T04:42:53.982Z,9.75
2018-04-22T04:43:58.639Z,9.79
2018-04-22T04:45:05.546Z,9.91
2018-04-22T04:46:10.426Z,9.96
2018-04-22T04:47:17.412Z,9.92
2018-04-22T04:48:23.372Z,10.08
2018-04-22T04:49:28.464Z,10.17
2018-04-22T04:50:34.807Z,10.33
2018-04-22T04:51:41.037Z,10.42
2018-04-22T04:52:47.516Z,10.49
2018-04-22T04:53:52.467Z,10.44
2018-04-22T04:54:58.422Z,10.54
2018-04-22T04:56:03.894Z,10.64
2018-04-22T04:57:08.182Z,10.65
2018-04-22T04:58:14.822Z,10.61
2018-04-22T04:59:20.476Z,10.46
2018-04-22T05:00:26.450Z,10.51
2018-04-22T05:01:33.907Z,10.58
2018-04-22T05:02:39.285Z,10.68
2018-04-22T05:03:49.220Z,10.81
2018-04-22T05:04:55.764Z,11.02
2018-04-22T05:06:02.468Z,11.09
2018-04-22T05:07:09.073Z,11.17
2018-04-22T05:08:15.084Z,11.32
2018-04-22T05:09:20.268Z,11.40
2018-04-22T05:10:24.685Z,11.40
2018-04-22T05:11:29.289Z,11.54
2018-04-22T05:12:34.352Z,11.66
2018-04-22T05:13:39.044Z,11.72
2018-04-22T05:14:43.611Z,11.75
2018-04-22T05:15:50.680Z,11.86
2018-04-22T05:16:58.478Z,11.90
2018-04-22T05:18:04.049Z,12.07
2018-04-22T05:19:09.226Z,12.18
2018-04-22T05:20:13.997Z,12.17
2018-04-22T05:21:18.720Z,12.20
2018-04-22T05:22:23.837Z,12.33
2018-04-22T05:23:30.020Z,12.48
2018-04-22T05:24:35.085Z,12.60
2018-04-22T05:25:40.045Z,12.72
2018-04-22T05:26:45.266Z,12.72
2018-04-22T05:27:50.874Z,12.67
2018-04-22T05:28:55.054Z,12.88
2018-04-22T05:30:01.227Z,13.01
2018-04-22T05:31:08.903Z,13.12
2018-04-22T05:32:15.233Z,13.21
2018-04-22T05:33:20.015Z,13.36
2018-04-22T05:34:26.483Z,13.34
2018-04-22T05:35:30.642Z,13.30
2018-04-22T05:36:36.421Z,13.39
2018-04-22T05:37:41.031Z,13.44
2018-04-22T05:38:47.464Z,13.61
2018-04-22T05:39:53.470Z,13.51
2018-04-22T05:41:09.700Z,13.64
2018-04-22T05:42:16.036Z,13.69
2018-04-22T05:43:21.166Z,13.71
2018-04-22T05:44:32.045Z,13.65
2018-04-22T05:45:36.920Z,13.60
2018-04-22T05:46:41.593Z,13.74
2018-04-22T05:47:45.760Z,13.72
2018-04-22T05:48:51.423Z,13.87
2018-04-22T05:49:55.983Z,13.94
2018-04-22T05:51:00.137Z,14.08
2018-04-22T05:52:05.185Z,14.26
2018-04-22T05:53:11.026Z,14.37
2018-04-22T05:54:16.756Z,14.36
2018-04-22T05:55:21.910Z,14.56
2018-04-22T05:56:27.103Z,14.44
2018-04-22T05:57:32.205Z,14.43
2018-04-22T05:58:36.404Z,14.57
2018-04-22T05:59:42.612Z,14.49
2018-04-22T06:00:47.240Z,14.59
2018-04-22T06:01:52.798Z,14.72
2018-04-22T06:02:58.274Z,14.81
2018-04-22T06:04:03.981Z,14.84
2018-04-22T06:05:09.579Z,14.78
2018-04-22T06:06:14.300Z,14.90
2018-04-22T06:07:19.137Z,15.25
2018-04-22T06:08:24.192Z,15.57
2018-04-22T06:09:30.962Z,15.77
2018-04-22T06:10:35.651Z,15.89
2018-04-22T06:11:40.320Z,16.14
2018-04-22T06:12:44.450Z,16.07
2018-04-22T06:13:51.736Z,16.20
2018-04-22T06:14:55.899Z,16.31
2018-04-22T06:16:00.599Z,16.23
2018-04-22T06:17:04.805Z,16.30
2018-04-22T06:18:10.228Z,16.27
2018-04-22T06:19:15.790Z,16.22
2018-04-22T06:20:21.232Z,16.36
2018-04-22T06:21:26.047Z,16.43
2018-04-22T06:22:30.177Z,16.37
2018-04-22T06:23:34.298Z,16.47
2018-04-22T06:24:40.153Z,16.57
2018-04-22T06:25:45.062Z,16.45
2018-04-22T06:26:51.970Z,16.26
2018-04-22T06:27:58.319Z,16.34
2018-04-22T06:29:03.401Z,16.30
2018-04-22T06:30:08.940Z,16.46
2018-04-22T06:31:13.545Z,16.46
2018-04-22T06:32:19.596Z,16.34
2018-04-22T06:33:24.193Z,16.58
2018-04-22T06:34:29.046Z,16.74
2018-04-22T06:35:34.078Z,16.80
2018-04-22T06:36:38.967Z,16.90
2018-04-22T06:37:43.571Z,16.85
2018-04-22T06:38:49.983Z,16.73
2018-04-22T06:39:55.517Z,16.50
2018-04-22T06:40:59.741Z,16.18
2018-04-22T06:42:04.418Z,16.15
2018-04-22T06:43:08.620Z,16.20
2018-04-22T06:44:12.808Z,16.18
2018-04-22T06:45:17.710Z,16.25
2018-04-22T06:46:22.434Z,16.31
2018-04-22T06:47:26.621Z,16.22
2018-04-22T06:48:30.746Z,16.25
2018-04-22T06:49:36.313Z,16.17
2018-04-22T06:50:40.939Z,16.14
2018-04-22T06:51:45.966Z,16.07
2018-04-22T06:52:51.066Z,16.05
2018-04-22T06:53:55.327Z,16.11
2018-04-22T06:54:59.464Z,16.18
2018-04-22T06:56:05.813Z,16.41
2018-04-22T06:57:10.476Z,16.78
2018-04-22T06:58:14.919Z,16.90
2018-04-22T06:59:19.815Z,17.09
2018-04-22T07:00:24.223Z,17.25
2018-04-22T07:01:28.917Z,17.25
2018-04-22T07:02:33.130Z,17.51
2018-04-22T07:03:37.857Z,17.73
2018-04-22T07:04:42.357Z,17.61
2018-04-22T07:05:48.700Z,17.69
2018-04-22T07:06:55.628Z,18.03
2018-04-22T07:08:00.842Z,18.24
2018-04-22T07:09:06.678Z,18.09
2018-04-22T07:10:10.813Z,17.95
2018-04-22T07:11:15.286Z,18.07
2018-04-22T07:12:19.424Z,18.39
2018-04-22T07:13:23.546Z,18.72
2018-04-22T07:14:27.758Z,18.93
2018-04-22T07:15:32.338Z,19.13
2018-04-22T07:16:36.659Z,19.25
2018-04-22T07:17:41.969Z,19.23
2018-04-22T07:18:46.679Z,19.33
2018-04-22T07:19:51.232Z,19.45
2018-04-22T07:20:56.198Z,19.41
2018-04-22T07:22:00.337Z,19.54
2018-04-22T07:23:06.357Z,19.65
2018-04-22T07:24:11.350Z,19.63
2018-04-22T07:25:16.754Z,19.54
2018-04-22T07:26:20.881Z,19.56
2018-04-22T07:27:27.117Z,19.57
2018-04-22T07:28:32.570Z,19.50
2018-04-22T07:29:41.331Z,19.59
2018-04-22T07:30:46.803Z,19.58
2018-04-22T07:31:57.589Z,19.20
2018-04-22T07:33:03.368Z,19.28
2018-04-22T07:34:07.572Z,19.39
2018-04-22T07:35:12.175Z,19.38
2018-04-22T07:36:17.386Z,19.55
2018-04-22T07:37:23.155Z,19.65
2018-04-22T07:38:27.351Z,19.60
2018-04-22T07:39:33.544Z,19.48
2018-04-22T07:40:37.790Z,19.57
2018-04-22T07:41:42.041Z,19.75
2018-04-22T07:42:46.155Z,19.85
2018-04-22T07:43:51.978Z,19.86
2018-04-22T07:44:56.146Z,19.94
2018-04-22T07:46:00.892Z,19.91
2018-04-22T07:47:06.115Z,19.85
2018-04-22T07:48:10.859Z,19.71
2018-04-22T07:49:15.356Z,19.52
2018-04-22T07:50:24.355Z,19.42
2018-04-22T07:51:34.474Z,19.28
2018-04-22T07:52:41.527Z,19.32
2018-04-22T07:53:46.240Z,19.36
2018-04-22T07:54:51.597Z,19.41
2018-04-22T07:55:57.981Z,19.51
2018-04-22T07:57:02.246Z,19.71
2018-04-22T07:58:07.500Z,19.92
2018-04-22T07:59:12.173Z,19.94
2018-04-22T08:00:20.675Z,20.18
2018-04-22T08:01:25.924Z,20.47
2018-04-22T08:02:30.497Z,20.64
2018-04-22T08:03:34.675Z,20.82
2018-04-22T08:04:38.892Z,21.11
2018-04-22T08:05:44.032Z,21.36
2018-04-22T08:06:49.300Z,21.55
2018-04-22T08:07:54.243Z,21.68
2018-04-22T08:09:00.363Z,21.52
2018-04-22T08:10:06.296Z,21.65
2018-04-22T08:11:11.335Z,21.69
2018-04-22T08:12:15.643Z,21.82
2018-04-22T08:13:20.713Z,21.85
2018-04-22T08:14:25.670Z,22.11
2018-04-22T08:15:31.379Z,22.18
2018-04-22T08:16:37.399Z,21.99
2018-04-22T08:17:42.561Z,21.96
2018-04-22T08:18:47.258Z,21.70
2018-04-22T08:19:52.678Z,21.55
2018-04-22T08:20:58.825Z,21.83
2018-04-22T08:22:02.965Z,21.82
2018-04-22T08:23:08.012Z,21.77
2018-04-22T08:24:12.204Z,21.69
2018-04-22T08:25:16.353Z,21.72
2018-04-22T08:26:21.410Z,21.79
2018-04-22T08:27:27.880Z,21.88
2018-04-22T08:28:33.466Z,21.92
2018-04-22T08:29:37.781Z,22.10
2018-04-22T08:30:43.363Z,22.05
2018-04-22T08:31:49.403Z,22.13
2018-04-22T08:32:59.532Z,22.11
2018-04-22T08:34:04.429Z,21.90
2018-04-22T08:35:08.590Z,22.00
2018-04-22T08:36:34.653Z,22.07
2018-04-22T08:37:38.828Z,21.96
2018-04-22T08:38:44.138Z,22.03
2018-04-22T08:39:49.410Z,22.22
2018-04-22T08:40:54.462Z,22.42
2018-04-22T08:41:58.603Z,22.38
2018-04-22T08:43:03.717Z,22.33
2018-04-22T08:44:07.908Z,22.44
2018-04-22T08:45:14.823Z,22.41
2018-04-22T08:46:20.412Z,22.52
2018-04-22T08:47:24.655Z,22.52
2018-04-22T08:48:30.022Z,22.45
2018-04-22T08:49:34.426Z,22.31
2018-04-22T08:50:39.160Z,22.15
2018-04-22T08:51:43.902Z,22.23
2018-04-22T08:52:48.479Z,22.14
2018-04-22T08:53:53.909Z,22.07
2018-04-22T08:54:58.066Z,21.94
2018-04-22T08:56:02.821Z,21.91
2018-04-22T08:57:07.108Z,22.05
2018-04-22T08:58:11.899Z,22.08
2018-04-22T08:59:16.912Z,22.19
2018-04-22T09:00:22.477Z,22.29
2018-04-22T09:01:27.524Z,22.50
2018-04-22T09:02:31.742Z,22.68
2018-04-22T09:03:35.945Z,22.47
2018-04-22T09:04:40.644Z,22.39
2018-04-22T09:05:45.779Z,22.33
2018-04-22T09:06:50.852Z,22.37
2018-04-22T09:07:56.156Z,22.31
2018-04-22T09:09:00.899Z,22.37
2018-04-22T09:10:05.066Z,22.26
2018-04-22T09:11:11.104Z,22.18
2018-04-22T09:12:15.420Z,21.98
2018-04-22T09:13:21.640Z,21.80
2018-04-22T09:14:27.374Z,21.58
2018-04-22T09:15:34.331Z,21.44
2018-04-22T09:16:38.977Z,21.30
2018-04-22T09:17:44.031Z,21.04
2018-04-22T09:18:48.987Z,21.02
2018-04-22T09:19:53.218Z,21.20
2018-04-22T09:21:00.289Z,21.45
2018-04-22T09:22:04.877Z,21.59
2018-04-22T09:23:09.218Z,21.62
2018-04-22T09:24:14.566Z,21.84
2018-04-22T09:25:18.745Z,21.91
2018-04-22T09:26:22.921Z,22.12
2018-04-22T09:27:28.378Z,22.36
2018-04-22T09:28:32.631Z,22.56
2018-04-22T09:29:37.087Z,22.91
2018-04-22T09:30:42.605Z,23.15
2018-04-22T09:31:46.771Z,23.34
2018-04-22T09:32:51.839Z,23.34
2018-04-22T09:33:57.531Z,23.41
2018-04-22T09:35:01.921Z,23.33
2018-04-22T09:36:06.921Z,23.18
2018-04-22T09:37:11.100Z,23.07
2018-04-22T09:38:15.393Z,22.87
2018-04-22T09:39:20.046Z,22.81
2018-04-22T09:40:24.168Z,22.71
2018-04-22T09:41:29.690Z,22.90
2018-04-22T09:42:34.174Z,23.12
2018-04-22T09:43:39.749Z,23.01
2018-04-22T09:44:45.642Z,22.95
2018-04-22T09:45:50.724Z,22.96
2018-04-22T09:46:56.102Z,22.91
2018-04-22T09:48:00.748Z,22.96
2018-04-22T09:49:04.965Z,22.79
2018-04-22T09:50:09.725Z,22.61
2018-04-22T09:51:14.084Z,22.80
2018-04-22T09:52:19.200Z,23.27
2018-04-22T09:53:26.943Z,23.58
2018-04-22T09:54:31.115Z,23.28
2018-04-22T09:55:36.116Z,23.21
2018-04-22T09:56:41.652Z,23.53
2018-04-22T09:57:47.017Z,23.96
2018-04-22T09:58:56.094Z,24.11
2018-04-22T10:00:00.235Z,24.25
2018-04-22T10:01:05.005Z,24.48
2018-04-22T10:02:15.312Z,24.64
2018-04-22T10:03:19.602Z,24.57
2018-04-22T10:04:27.769Z,24.45
2018-04-22T10:05:36.804Z,24.48
2018-04-22T10:06:41.545Z,24.75
2018-04-22T10:07:46.350Z,24.88
2018-04-22T10:08:51.472Z,24.97
2018-04-22T10:09:57.698Z,24.91
2018-04-22T10:11:03.235Z,24.59
2018-04-22T10:12:07.986Z,24.10
2018-04-22T10:13:13.061Z,23.83
2018-04-22T10:14:20.511Z,23.74
2018-04-22T10:15:24.983Z,23.75
2018-04-22T10:16:29.698Z,24.23
2018-04-22T10:17:33.841Z,24.78
2018-04-22T10:18:38.599Z,25.03
2018-04-22T10:19:42.751Z,24.92
2018-04-22T10:20:48.377Z,24.99
2018-04-22T10:21:54.157Z,25.17
2018-04-22T10:22:58.349Z,25.50
2018-04-22T10:24:02.569Z,25.72
2018-04-22T10:25:07.704Z,25.57
2018-04-22T10:26:12.953Z,25.34
2018-04-22T10:27:17.128Z,25.66
2018-04-22T10:28:21.371Z,26.09
2018-04-22T10:29:25.579Z,26.21
2018-04-22T10:30:29.803Z,25.90
2018-04-22T10:31:34.499Z,25.56
2018-04-22T10:32:41.684Z,25.05
2018-04-22T10:33:49.778Z,24.93
2018-04-22T10:34:56.843Z,25.09
2018-04-22T10:36:01.098Z,25.20
2018-04-22T10:37:05.373Z,25.33
2018-04-22T10:38:09.523Z,25.45
2018-04-22T10:39:13.770Z,25.75
2018-04-22T10:40:17.945Z,25.97
2018-04-22T10:41:22.189Z,25.91
2018-04-22T10:42:27.041Z,25.87
2018-04-22T10:43:31.196Z,25.46
2018-04-22T10:44:36.695Z,25.34
2018-04-22T10:45:44.433Z,25.40
2018-04-22T10:46:49.675Z,25.52
2018-04-22T10:47:54.578Z,25.74
2018-04-22T10:48:58.781Z,25.55
2018-04-22T10:50:02.982Z,25.10
2018-04-22T10:51:07.123Z,24.61
2018-04-22T10:52:11.601Z,24.50
2018-04-22T10:53:15.775Z,24.43
2018-04-22T10:54:20.289Z,24.12
2018-04-22T10:55:24.440Z,24.08
2018-04-22T10:56:28.577Z,24.11
2018-04-22T10:57:33.200Z,24.61
2018-04-22T10:58:37.933Z,24.85
2018-04-22T10:59:42.127Z,24.88
2018-04-22T11:00:48.134Z,25.30
2018-04-22T11:01:53.664Z,25.80
2018-04-22T11:02:59.345Z,25.78
2018-04-22T11:04:03.820Z,26.05
2018-04-22T11:05:08.228Z,25.23
2018-04-22T11:06:13.150Z,25.25
2018-04-22T11:07:17.988Z,26.13
2018-04-22T11:08:22.183Z,26.48
2018-04-22T11:09:26.303Z,27.20
2018-04-22T11:10:30.937Z,27.39
2018-04-22T11:11:35.640Z,26.73
2018-04-22T11:12:39.813Z,26.46
2018-04-22T11:13:44.273Z,25.61
2018-04-22T11:14:48.919Z,25.43
2018-04-22T11:15:53.723Z,25.40
2018-04-22T11:16:58.467Z,25.71
2018-04-22T11:18:03.174Z,26.28
2018-04-22T11:19:07.369Z,26.98
2018-04-22T11:20:11.543Z,27.03
2018-04-22T11:21:15.733Z,26.58
2018-04-22T11:22:20.029Z,26.31
2018-04-22T11:23:25.264Z,25.93
2018-04-22T11:24:29.459Z,26.21
2018-04-22T11:25:34.236Z,26.60
2018-04-22T11:26:38.397Z,26.70
2018-04-22T11:27:43.948Z,26.93
2018-04-22T11:28:48.111Z,27.21
2018-04-22T11:29:52.333Z,27.03
2018-04-22T11:31:07.434Z,27.15
2018-04-22T11:32:11.871Z,26.92
2018-04-22T11:33:16.991Z,26.48
2018-04-22T11:34:21.956Z,26.66
2018-04-22T11:35:27.139Z,26.55
2018-04-22T11:36:33.064Z,26.67
2018-04-22T11:37:37.685Z,26.49
2018-04-22T11:38:41.973Z,26.48
2018-04-22T11:39:47.346Z,26.19
2018-04-22T11:40:52.790Z,25.91
2018-04-22T11:41:57.022Z,25.83
2018-04-22T11:43:01.817Z,25.71
2018-04-22T11:44:05.975Z,25.55
2018-04-22T11:45:13.623Z,25.76
2018-04-22T11:46:36.478Z,26.25
2018-04-22T11:47:40.663Z,26.64
2018-04-22T11:48:45.390Z,26.86
2018-04-22T11:49:49.653Z,27.22
2018-04-22T11:50:54.509Z,27.34
2018-04-22T11:52:00.096Z,27.15
2018-04-22T11:53:04.344Z,26.78
2018-04-22T11:54:08.525Z,27.48
2018-04-22T11:55:13.299Z,28.07
2018-04-22T11:56:17.513Z,28.11
2018-04-22T11:57:22.185Z,27.64
2018-04-22T11:58:28.082Z,27.35
2018-04-22T11:59:32.484Z,27.60
2018-04-22T12:00:37.099Z,28.34
2018-04-22T12:01:41.649Z,29.17
2018-04-22T12:02:48.131Z,29.83
2018-04-22T12:03:52.508Z,29.11
2018-04-22T12:04:57.928Z,28.92
2018-04-22T12:06:05.827Z,28.99
2018-04-22T12:07:10.237Z,29.36
2018-04-22T12:08:14.960Z,29.18
2018-04-22T12:09:19.239Z,28.99
2018-04-22T12:10:23.751Z,29.58
2018-04-22T12:11:29.761Z,29.62
2018-04-22T12:12:34.160Z,29.34
2018-04-22T12:13:39.387Z,29.41
2018-04-22T12:14:43.720Z,29.57
2018-04-22T12:15:48.229Z,28.83
2018-04-22T12:16:56.192Z,28.69
2018-04-22T12:18:07.863Z,29.03
2018-04-22T12:19:16.341Z,29.01
2018-04-22T12:20:20.488Z,28.94
2018-04-22T12:21:25.263Z,27.62
2018-04-22T12:22:29.946Z,27.40
2018-04-22T12:23:34.498Z,27.42
2018-04-22T12:24:39.152Z,27.81
2018-04-22T12:25:52.011Z,28.40
2018-04-22T12:27:04.700Z,28.61
2018-04-22T12:28:09.349Z,27.88
2018-04-22T12:29:14.937Z,27.40
2018-04-22T12:30:20.253Z,27.83
2018-04-22T12:31:27.009Z,27.59
2018-04-22T12:32:31.635Z,27.65
2018-04-22T12:33:36.154Z,27.58
2018-04-22T12:34:40.333Z,27.74
2018-04-22T12:35:44.688Z,27.51
2018-04-22T12:36:49.649Z,27.01
2018-04-22T12:37:53.816Z,27.06
2018-04-22T12:38:59.977Z,27.89
2018-04-22T12:40:04.680Z,27.65
2018-04-22T12:41:09.927Z,27.44
2018-04-22T12:42:14.691Z,27.13
2018-04-22T12:43:19.710Z,27.07
2018-04-22T12:44:25.569Z,27.42
2018-04-22T12:45:30.001Z,28.34
2018-04-22T12:46:34.266Z,28.83
2018-04-22T12:47:38.458Z,28.97
2018-04-22T12:48:42.599Z,29.33
2018-04-22T12:49:47.798Z,30.28
2018-04-22T12:50:51.979Z,29.15
2018-04-22T12:51:57.071Z,29.04
2018-04-22T12:53:01.235Z,28.42
2018-04-22T12:54:05.624Z,28.07
2018-04-22T12:55:12.183Z,29.31
2018-04-22T12:56:16.819Z,29.86
2018-04-22T12:57:20.987Z,29.72
2018-04-22T12:58:25.816Z,29.25
2018-04-22T12:59:30.055Z,28.03
2018-04-22T13:00:35.505Z,27.96
2018-04-22T13:01:39.971Z,29.07
2018-04-22T13:02:44.229Z,28.73
2018-04-22T13:03:48.377Z,28.63
2018-04-22T13:04:52.953Z,29.04
2018-04-22T13:05:57.254Z,29.60
2018-04-22T13:07:01.700Z,29.16
2018-04-22T13:08:06.750Z,28.91
2018-04-22T13:09:11.400Z,29.21
2018-04-22T13:10:16.990Z,29.18
2018-04-22T13:11:22.097Z,29.38
2018-04-22T13:12:27.296Z,29.63
2018-04-22T13:13:31.803Z,29.33
2018-04-22T13:14:36.038Z,29.34
2018-04-22T13:15:40.464Z,29.05
2018-04-22T13:16:44.701Z,29.12
2018-04-22T13:17:49.674Z,29.92
2018-04-22T13:18:53.915Z,29.31
2018-04-22T13:19:58.968Z,29.15
2018-04-22T13:21:03.191Z,29.15
2018-04-22T13:22:07.395Z,30.05
2018-04-22T13:23:11.604Z,30.30
2018-04-22T13:24:16.285Z,30.62
2018-04-22T13:25:20.438Z,31.11
2018-04-22T13:26:24.610Z,31.90
2018-04-22T13:27:28.837Z,32.03
2018-04-22T13:28:32.967Z,31.36
2018-04-22T13:29:37.225Z,31.98
2018-04-22T13:30:41.612Z,32.17
2018-04-22T13:31:46.393Z,32.60
2018-04-22T13:32:50.933Z,31.39
2018-04-22T13:34:01.392Z,31.61
2018-04-22T13:35:05.631Z,31.20
2018-04-22T13:36:09.777Z,31.05
2018-04-22T13:37:15.927Z,30.81
2018-04-22T13:38:21.226Z,30.79
2018-04-22T13:39:26.370Z,30.67
2018-04-22T13:40:30.533Z,30.75
2018-04-22T13:41:35.523Z,31.55
2018-04-22T13:42:41.991Z,31.16
2018-04-22T13:43:46.314Z,29.89
2018-04-22T13:44:50.550Z,29.80
2018-04-22T13:45:58.254Z,29.83
2018-04-22T13:47:03.758Z,30.66
2018-04-22T13:48:09.681Z,30.43
2018-04-22T13:49:13.899Z,29.36
2018-04-22T13:50:23.623Z,29.27
2018-04-22T13:51:28.077Z,28.73
2018-04-22T13:52:32.233Z,29.37
2018-04-22T13:53:36.491Z,31.03
2018-04-22T13:54:42.329Z,30.68
2018-04-22T13:55:47.015Z,30.09
2018-04-22T13:56:56.662Z,29.98
2018-04-22T13:58:00.833Z,29.45
2018-04-22T13:59:14.206Z,30.03
2018-04-22T14:00:26.277Z,30.28
2018-04-22T14:01:31.141Z,32.22
2018-04-22T14:02:35.727Z,32.92
2018-04-22T14:03:46.626Z,31.83
2018-04-22T14:04:50.894Z,31.53
2018-04-22T14:05:55.183Z,32.43
2018-04-22T14:06:59.342Z,32.56
2018-04-22T14:08:03.530Z,32.92
2018-04-22T14:09:09.593Z,32.79
2018-04-22T14:10:13.819Z,32.10
2018-04-22T14:11:20.809Z,32.66
2018-04-22T14:12:25.459Z,32.25
2018-04-22T14:13:30.104Z,32.64
2018-04-22T14:14:34.422Z,31.44
2018-04-22T14:15:38.685Z,31.57
2018-04-22T14:16:43.139Z,31.17
2018-04-22T14:17:47.793Z,31.98
2018-04-22T14:18:51.975Z,32.94
2018-04-22T14:21:12.473Z,32.44
2018-04-22T14:22:16.767Z,32.81